Anderson, IN

1:03 PM EDT on July 04, 2015 (GMT -0400)
Rydman and Fox, Inc. | | Change Station
CLOSE
Current Station
Personal Weather Station
Location: Anderson, IN
Elevation: 875 ft
Nearby Weather Stations

Elev 875 ft 40.19 °N, 85.75 °W | Updated 4 seconds ago

Partly Cloudy
Partly Cloudy
75.6 °F
Feels Like 78 °F
N
5.0
Wind Variable Wind from WSW
Gusts 9.0 mph

Today
High -- | Low -- °F
--% Chance of Precip.
Yesterday
High -- | Low -- °F
Precip. -- in
6:18 AM 9:15 PM
Waning Gibbous, 91% visible
Pressure 30.01 in
Visibility 10.0 miles
Clouds Few 4100 ft
Heat Index 78 °F
Dew Point 63 °F
Humidity 65%
Rainfall 0.00 in
Snow Depth Not available.
UV 11 out of 12
Pollen 3.40 out of 12
Air Quality Not available.
Flu Activity Not available.
METAR KMIE 041653Z 26004KT 10SM FEW041 25/14 A3003 RMK AO2 SLP160 T02500139

More Conditions Fewer Conditions

Pressure 30.01 in
Visibility 10.0 miles
Clouds Few 4100 ft
Heat Index 78 °F
Dew Point 63 °F
Humidity 65%
Rainfall 0.00 in
Snow Depth Not available.
UV 11 out of 12
Pollen 3.40 out of 12
Air Quality Not available.
Flu Activity Not available.
METAR KMIE 041653Z 26004KT 10SM FEW041 25/14 A3003 RMK AO2 SLP160 T02500139

More Conditions Fewer Conditions

10-Day Weather Forecast

×

Almanac

Astronomy

Jul. 04, 2015 Rise Set
Actual Time
Civil Twilight
Nautical Twilight
Astronomical Twilight
Moon
Length of Visible Light
Length of Day
Tomorrow will be .
, % of the Moon is Illuminated

Today's Extremes

State Highs State Lows

Community

WunderPhotos

Upload Photos

1,835,003 photos uploaded!

WunderBlogs® & News

Nearby

Air Quality

  Air Quality AQ Index Pollutant
Not available.

Snow Depth

Station Depth Elevation

Earthquake Activity

City Distance Mag. Time & Date
Minimum magnitude displayed is 2.5.

Coastal Water Temperatures

Place Temperature

Stations

Nearby Weather Stations

Station Location Temp. Windchill Dew Point Humidity Wind Precip. Elev Updated Type